Flight Track Log - Related Links

Times and Time Zones

All times are in EDT time to prevent confusion due to time zone crossing. See the DAL3799 flight status page for this flight to view local times or setup timezone preferences in your user account.

Time Position Orientation Groundspeed Altitude Reporting Facility
EDT Latitude Longitude Course Direction KTS MPH feet Rate Location/Type
Mon 10:05:31 PM 42.1994 -83.3608 12° North 158 182 1,400  Level Cleveland Center
Mon 10:06:50 PM 42.1561 -83.4289 229° Southwest 198 228 4,300 2,149 Climbing Cleveland Center
Mon 10:07:45 PM 42.1564 -83.5019 270° West 280 322 6,200 2,604 Climbing Cleveland Center
Mon 10:08:00 PM 42.5285 -83.2382 12° North  Level FlightAware Approximate
Mon 10:08:36 PM 42.1942 -83.5708 307° West 283 326 8,900  Level Cleveland Center
Mon 10:09:00 PM 42.6409 -83.2044 12° North  Level FlightAware Approximate
Mon 10:09:36 PM 42.2697 -83.5519 10° North 319 367 11,400  Level Cleveland Center
Mon 10:10:00 PM 42.7534 -83.1706 12° North  Level FlightAware Approximate
Mon 10:10:37 PM 42.3417 -83.5075 25° Northeast 330 380 12,700  Level Cleveland Center
Mon 10:11:37 PM 42.4328 -83.4472 26° Northeast 337 388 14,200 1,500 Climbing Cleveland Center
Mon 10:12:37 PM 42.5261 -83.3836 27° Northeast 351 404 15,700 1,500 Climbing Cleveland Center
Mon 10:13:37 PM 42.6214 -83.3203 26° Northeast 364 419 17,200 1,350 Climbing Cleveland Center
Mon 10:14:37 PM 42.7189 -83.2539 27° Northeast 374 430 18,400 1,350 Climbing Cleveland Center
Mon 10:15:37 PM 42.8206 -83.1875 26° Northeast 386 444 19,900 1,550 Climbing Cleveland Center
Mon 10:16:37 PM 42.8978 -83.0886 43° Northeast 391 450 21,500 1,550 Climbing Cleveland Center
Mon 10:17:37 PM 42.9319 -82.9481 72° East 368 423 23,000 1,300 Climbing Cleveland Center
Mon 10:18:37 PM 42.9642 -82.7989 74° East 380 437 24,100 1,000 Climbing Cleveland Center
Mon 10:19:37 PM 42.9958 -82.6553 73° East 392 451 25,000 450 Climbing Cleveland Center
Mon 10:20:37 PM 43.0300 -82.4975 73° East 408 470 25,000  Level Cleveland Center
Mon 10:21:45 PM 43.0667 -82.2833 77° East 440 506 25,000  Level Toronto Center
Mon 10:22:45 PM 43.1000 -82.1167 75° East 450 518 25,000  Level Toronto Center
Mon 10:23:45 PM 43.1167 -81.9667 81° East 440 506 25,000  Level Toronto Center
Mon 10:24:45 PM 43.1667 -81.8000 68° East 440 506 25,000  Level Toronto Center
Mon 10:25:45 PM 43.2000 -81.6500 73° East 440 506 25,000  Level Toronto Center
Mon 10:26:45 PM 43.2333 -81.4667 76° East 440 506 25,000  Level Toronto Center
Mon 10:27:45 PM 43.2667 -81.3000 75° East 440 506 25,000  Level Toronto Center
Mon 10:28:45 PM 43.3000 -81.1500 73° East 440 506 25,000  Level Toronto Center
Mon 10:29:45 PM 43.3167 -80.9833 82° East 440 506 25,000  Level Toronto Center
Mon 10:30:45 PM 43.3500 -80.8333 73° East 440 506 25,000  Level Toronto Center
Mon 10:31:45 PM 43.4000 -80.6500 69° East 450 518 25,000  Level Toronto Center
Mon 10:32:45 PM 43.4333 -80.4833 75° East 450 518 25,000  Level Toronto Center
Mon 10:33:45 PM 43.4667 -80.3167 75° East 450 518 25,000  Level Toronto Center
Mon 10:34:45 PM 43.5000 -80.1667 73° East 450 518 25,000  Level Toronto Center
Mon 10:35:45 PM 43.5500 -80.0000 67° East 450 518 25,000  Level Toronto Center
Mon 10:36:45 PM 43.5833 -79.8333 75° East 450 518 25,000  Level Toronto Center
Mon 10:37:45 PM 43.6333 -79.6833 65° Northeast 450 518 25,000  Level Toronto Center
Mon 10:38:45 PM 43.6833 -79.5167 67° East 450 518 25,000  Level Toronto Center
Mon 10:39:45 PM 43.7167 -79.3500 74° East 450 518 25,000  Level Toronto Center
Mon 10:40:45 PM 43.7667 -79.2167 63° Northeast 440 506 25,000  Level Toronto Center
Mon 10:41:45 PM 43.8167 -79.0333 69° East 450 518 25,000  Level Toronto Center
Mon 10:42:45 PM 43.8667 -78.9000 62° Northeast 440 506 25,000  Level Toronto Center
Mon 10:43:45 PM 43.9167 -78.7000 71° East 440 506 25,000  Level Toronto Center
Mon 10:44:45 PM 43.9500 -78.5667 71° East 440 506 25,000  Level Toronto Center
Mon 10:45:45 PM 43.9833 -78.4000 74° East 440 506 25,000  Level Toronto Center
Mon 10:46:45 PM 44.0500 -78.2333 61° Northeast 440 506 25,000  Level Toronto Center
Mon 10:47:45 PM 44.1000 -78.1000 62° Northeast 440 506 25,000  Level Toronto Center
Mon 10:48:45 PM 44.1667 -77.9667 55° Northeast 440 506 25,000  Level Toronto Center
Mon 10:49:45 PM 44.2333 -77.8167 58° Northeast 440 506 25,000 -50 Level Toronto Center
Mon 10:50:45 PM 44.3000 -77.6833 55° Northeast 440 506 24,900 -500 Descending Toronto Center
Mon 10:51:45 PM 44.3667 -77.5333 58° Northeast 440 506 24,000 -450 Descending Toronto Center
Mon 10:52:45 PM 44.4333 -77.3833 58° Northeast 440 506 24,000  Level Toronto Center
Mon 10:53:45 PM 44.4833 -77.2500 62° Northeast 440 506 24,000 -500 Level Toronto Center
Mon 10:54:45 PM 44.5667 -77.0833 55° Northeast 440 506 23,000 -1,250 Descending Toronto Center
Mon 10:55:45 PM 44.6333 -76.9667 51° Northeast 440 506 21,500 -2,100 Descending Toronto Center
Mon 10:56:45 PM 44.7000 -76.8167 58° Northeast 420 483 18,800 -2,400 Descending Toronto Center
Mon 10:57:45 PM 44.7667 -76.7000 51° Northeast 380 437 16,700 -2,400 Descending Toronto Center
Mon 10:58:45 PM 44.8000 -76.5833 68° East 350 403 14,000 -2,350 Descending Toronto Center
Mon 10:59:45 PM 44.8667 -76.4833 47° Northeast 350 403 12,000 -1,950 Descending Toronto Center
Mon 11:00:45 PM 44.9167 -76.3833 55° Northeast 320 368 10,100 -1,800 Descending Toronto Center
Mon 11:01:45 PM 44.9667 -76.2833 55° Northeast 290 334 8,400 -1,700 Descending Toronto Center
Mon 11:02:45 PM 45.0167 -76.2167 43° Northeast 280 322 6,700 -1,550 Descending Toronto Center
Mon 11:03:45 PM 45.0667 -76.1167 55° Northeast 290 334 5,300 -1,400 Descending Toronto Center
Mon 11:04:45 PM 45.1000 -76.0333 60° Northeast 270 311 3,900 -1,150 Descending Toronto Center
Mon 11:05:45 PM 45.1500 -75.9667 43° Northeast 240 276 3,000 -450 Descending Toronto Center
Mon 11:06:45 PM 45.1833 -75.9000 55° Northeast 190 219 3,000  Level Toronto Center
Mon 11:07:45 PM 45.2000 -75.8500 65° Northeast 180 207 3,000  Level Toronto Center
Mon 11:08:45 PM 45.2333 -75.8000 47° Northeast 170 196 3,000  Level Toronto Center

Login

Don't have an account? Register now (free) for customized features, flight alerts, and more!